Time;durP1;ratioP1;P1;durP2;ratioP2;P2;SDS_P1;SDS_P2;PMS_P1;PMS_P2;Temp;Humidity;BMP_temperature;BMP_pressure;BME280_temperature;BME280_humidity;BME280_pressure;Samples;Min_cycle;Max_cycle;Signal;HPM_P1;HPM_P2
2021/03/18 00:00:13;;;;;;;;;;;;;;;19.47;48.73;102007.06;2086701;28;2234;-71
2021/03/18 00:01:14;;;;;;;;;;;;;;;19.47;48.75;102003.38;2083476;28;2299;-72
2021/03/18 00:02:15;;;;;;;;;;;;;;;19.48;48.78;102002.22;2089485;28;1969;-72
2021/03/18 00:03:16;;;;;;;;;;;;;;;19.47;48.80;101995.72;2089647;28;1754;-72
2021/03/18 00:04:17;;;;;;;;;;;;;;;19.47;48.73;102003.38;2090521;28;1242;-71
2021/03/18 00:05:18;;;;;;;;;;;;;;;19.48;48.82;102000.22;2096073;28;1138;-71
2021/03/18 00:06:19;;;;;;;;;;;;;;;19.48;48.75;101999.38;2087326;28;1626;-71
2021/03/18 00:07:20;;;;;;;;;;;;;;;19.48;48.79;102005.06;2088315;28;1207;-72
2021/03/18 00:08:20;;;;;;;;;;;;;;;19.47;48.77;101992.88;2091374;28;1703;-71
2021/03/18 00:09:21;;;;;;;;;;;;;;;19.47;48.71;101995.72;2089330;28;1748;-71
2021/03/18 00:10:22;;;;;;;;;;;;;;;19.48;48.74;101993.72;2086420;28;1222;-72
2021/03/18 00:11:23;;;;;;;;;;;;;;;19.48;48.74;101996.53;2082371;28;1057;-72
2021/03/18 00:12:23;;;;;;;;;;;;;;;19.49;48.80;102001.06;2089898;28;1251;-70
2021/03/18 00:13:24;;;;;;;;;;;;;;;19.48;48.66;101994.53;2089422;28;1726;-71
2021/03/18 00:14:25;;;;;;;;;;;;;;;19.48;48.81;101997.38;2089764;28;1656;-70
2021/03/18 00:15:26;;;;;;;;;;;;;;;19.49;48.94;101995.38;2091264;28;1413;-70
2021/03/18 00:16:26;;;;;;;;;;;;;;;19.49;48.76;101986.84;2090558;28;1139;-70
2021/03/18 00:17:27;;;;;;;;;;;;;;;19.48;48.99;101994.53;2090577;28;1239;-70
2021/03/18 00:18:29;;;;;;;;;;;;;;;19.48;48.82;101991.69;2092521;28;1906;-70
2021/03/18 00:19:29;;;;;;;;;;;;;;;19.49;48.92;101992.53;2096409;28;1742;-71
2021/03/18 00:20:30;;;;;;;;;;;;;;;19.49;48.90;101998.22;2088935;28;1869;-72
2021/03/18 00:21:31;;;;;;;;;;;;;;;19.49;48.93;101998.22;2090361;28;2091;-72
2021/03/18 00:22:32;;;;;;;;;;;;;;;19.48;48.98;101986.03;2090632;28;1187;-72
2021/03/18 00:23:32;;;;;;;;;;;;;;;19.49;48.92;101987.72;2090590;28;1774;-72
2021/03/18 00:24:33;;;;;;;;;;;;;;;19.49;48.92;101986.84;2090117;28;1065;-72
2021/03/18 00:25:34;;;;;;;;;;;;;;;19.49;48.97;101989.69;2090089;28;1385;-71
2021/03/18 00:26:35;;;;;;;;;;;;;;;19.48;48.90;101988.88;2085366;28;1314;-71
2021/03/18 00:27:35;;;;;;;;;;;;;;;19.49;48.95;101996.25;2083506;28;1556;-72
2021/03/18 00:28:36;;;;;;;;;;;;;;;19.49;49.07;101987.72;2089266;28;1869;-72
2021/03/18 00:29:37;;;;;;;;;;;;;;;19.49;49.09;101982.06;2089984;28;1702;-72
2021/03/18 00:30:38;;;;;;;;;;;;;;;19.49;48.94;101987.72;2089814;28;1699;-71
2021/03/18 00:31:39;;;;;;;;;;;;;;;19.50;49.11;101985.72;2090116;28;1064;-71
2021/03/18 00:32:40;;;;;;;;;;;;;;;19.49;49.05;101986.84;2086253;28;1706;-71
2021/03/18 00:33:40;;;;;;;;;;;;;;;19.49;49.01;101978.34;2089867;28;1465;-71
2021/03/18 00:34:41;;;;;;;;;;;;;;;19.50;49.01;101985.72;2085595;28;1064;-71
2021/03/18 00:35:42;;;;;;;;;;;;;;;19.49;49.18;101976.38;2089540;28;1706;-71
2021/03/18 00:36:43;;;;;;;;;;;;;;;19.49;49.02;101976.38;2089437;28;2256;-71
2021/03/18 00:37:43;;;;;;;;;;;;;;;19.50;49.04;101975.22;2088649;28;1932;-71
2021/03/18 00:38:44;;;;;;;;;;;;;;;19.50;49.14;101977.22;2088457;28;1918;-71
2021/03/18 00:39:45;;;;;;;;;;;;;;;19.50;49.23;101978.03;2090302;28;1088;-71
2021/03/18 00:40:46;;;;;;;;;;;;;;;19.50;49.16;101978.03;2081805;28;2009;-71
2021/03/18 00:41:46;;;;;;;;;;;;;;;19.51;49.10;101973.22;2090271;28;1135;-70
2021/03/18 00:42:48;;;;;;;;;;;;;;;19.50;49.08;101978.03;2089517;28;1714;-71
2021/03/18 00:43:49;;;;;;;;;;;;;;;19.50;49.12;101968.69;2088008;28;2080;-70
2021/03/18 00:44:49;;;;;;;;;;;;;;;19.50;49.31;101972.38;2088501;28;2456;-71
2021/03/18 00:45:50;;;;;;;;;;;;;;;19.50;49.23;101972.38;2088679;28;1802;-70
2021/03/18 00:46:51;;;;;;;;;;;;;;;19.50;49.25;101972.38;2085904;28;1984;-70
2021/03/18 00:47:52;;;;;;;;;;;;;;;19.50;49.14;101966.69;2089928;28;1112;-70
2021/03/18 00:48:53;;;;;;;;;;;;;;;19.50;49.22;101963.84;2081871;28;2005;-71
2021/03/18 00:49:54;;;;;;;;;;;;;;;19.51;49.27;101967.53;2081037;28;2242;-70
2021/03/18 00:50:54;;;;;;;;;;;;;;;19.51;49.20;101961.84;2090252;28;2299;-71
2021/03/18 00:51:55;;;;;;;;;;;;;;;19.50;49.35;101966.69;2087207;28;1863;-71
2021/03/18 00:52:56;;;;;;;;;;;;;;;19.50;49.22;101963.84;2089735;28;1012;-71
2021/03/18 00:53:57;;;;;;;;;;;;;;;19.50;49.36;101968.69;2083491;28;1616;-70
2021/03/18 00:54:57;;;;;;;;;;;;;;;19.50;49.21;101969.53;2090696;28;1160;-71
2021/03/18 00:55:58;;;;;;;;;;;;;;;19.50;49.22;101963.84;2089628;28;1629;-71
2021/03/18 00:56:59;;;;;;;;;;;;;;;19.51;49.29;101967.53;2089382;28;1691;-71
2021/03/18 00:58:00;;;;;;;;;;;;;;;19.50;49.36;101969.53;2089709;28;2064;-71
2021/03/18 00:59:01;;;;;;;;;;;;;;;19.51;49.31;101961.84;2089140;28;1993;-71
2021/03/18 01:00:02;;;;;;;;;;;;;;;19.51;49.32;101961.84;2089094;28;1702;-71
2021/03/18 01:01:03;;;;;;;;;;;;;;;19.49;49.29;101967.84;2089240;28;1103;-71
2021/03/18 01:02:03;;;;;;;;;;;;;;;19.51;49.32;101967.53;2087952;28;1276;-71
2021/03/18 01:03:04;;;;;;;;;;;;;;;19.50;49.29;101963.84;2087707;28;1751;-72
2021/03/18 01:04:05;;;;;;;;;;;;;;;19.51;49.42;101962.69;2087389;28;1314;-72
2021/03/18 01:05:06;;;;;;;;;;;;;;;19.51;49.41;101959.84;2086555;28;1754;-72
2021/03/18 01:06:07;;;;;;;;;;;;;;;19.51;49.44;101965.53;2090643;28;1675;-72
2021/03/18 01:07:08;;;;;;;;;;;;;;;19.52;49.56;101960.72;2090047;28;1100;-72
2021/03/18 01:08:08;;;;;;;;;;;;;;;19.52;49.41;101961.56;2090488;28;1039;-72
2021/03/18 01:09:09;;;;;;;;;;;;;;;19.52;49.54;101964.38;2089747;28;1747;-72
2021/03/18 01:10:10;;;;;;;;;;;;;;;19.51;49.51;101968.38;2088409;28;1072;-72
2021/03/18 01:11:11;;;;;;;;;;;;;;;19.52;49.54;101963.56;2093104;28;1127;-72
2021/03/18 01:12:12;;;;;;;;;;;;;;;19.52;49.48;101963.56;2097514;28;1068;-72
2021/03/18 01:13:18;;;;;;;;;;;;;;;19.52;49.43;101969.22;2092555;28;1600;-72
2021/03/18 01:14:19;;;;;;;;;;;;;;;19.52;49.59;101960.72;2089446;28;1775;-72
2021/03/18 01:15:20;;;;;;;;;;;;;;;19.52;49.45;101963.56;2091051;28;1644;-72
2021/03/18 01:16:21;;;;;;;;;;;;;;;19.51;49.47;101959.84;2091557;28;1072;-72
2021/03/18 01:17:21;;;;;;;;;;;;;;;19.51;49.62;101965.53;2090963;28;1735;-72
2021/03/18 01:18:22;;;;;;;;;;;;;;;19.51;49.59;101962.69;2090826;28;1914;-72
2021/03/18 01:19:23;;;;;;;;;;;;;;;19.51;49.56;101961.84;2091442;28;1075;-72
2021/03/18 01:20:24;;;;;;;;;;;;;;;19.51;49.63;101962.69;2090968;28;1949;-72
2021/03/18 01:21:25;;;;;;;;;;;;;;;19.51;49.60;101965.53;2087249;28;1921;-71
2021/03/18 01:22:26;;;;;;;;;;;;;;;19.51;49.68;101959.00;2090848;28;1751;-71
2021/03/18 01:23:26;;;;;;;;;;;;;;;19.52;49.58;101960.72;2088253;28;1783;-71
2021/03/18 01:24:27;;;;;;;;;;;;;;;19.52;49.54;101958.72;2087094;28;1083;-71
2021/03/18 01:25:28;;;;;;;;;;;;;;;19.52;49.75;101958.72;2087958;28;1862;-71
2021/03/18 01:26:29;;;;;;;;;;;;;;;19.53;49.74;101957.53;2090513;28;1672;-71
2021/03/18 01:27:29;;;;;;;;;;;;;;;19.54;49.73;101958.38;2088110;28;1072;-71
2021/03/18 01:28:31;;;;;;;;;;;;;;;19.53;49.78;101960.38;2093289;28;1727;-71
2021/03/18 01:29:32;;;;;;;;;;;;;;;19.53;49.63;101960.38;2090712;28;1919;-70
2021/03/18 01:30:32;;;;;;;;;;;;;;;19.53;49.87;101963.22;2089231;28;1800;-71
2021/03/18 01:31:33;;;;;;;;;;;;;;;19.54;49.92;101961.22;2090591;28;1819;-71
2021/03/18 01:32:34;;;;;;;;;;;;;;;19.53;50.01;101963.22;2091374;28;1874;-71
2021/03/18 01:33:35;;;;;;;;;;;;;;;19.54;49.82;101962.06;2087523;28;1787;-71
2021/03/18 01:34:36;;;;;;;;;;;;;;;19.54;49.69;101959.22;2095178;28;1065;-71
2021/03/18 01:35:37;;;;;;;;;;;;;;;19.53;49.80;101957.53;2089217;28;1877;-72
2021/03/18 01:36:37;;;;;;;;;;;;;;;19.54;49.70;101961.22;2088419;28;2244;-71
2021/03/18 01:37:38;;;;;;;;;;;;;;;19.53;49.64;101953.88;2091426;28;1979;-71
2021/03/18 01:38:39;;;;;;;;;;;;;;;19.53;49.73;101953.88;2084081;28;2293;-72
2021/03/18 01:39:40;;;;;;;;;;;;;;;19.52;49.77;101947.34;2095610;28;1131;-72
2021/03/18 01:40:41;;;;;;;;;;;;;;;19.52;49.71;101950.19;2088081;28;1882;-71
2021/03/18 01:41:41;;;;;;;;;;;;;;;19.52;49.80;101944.53;2090760;28;1665;-71
2021/03/18 01:42:42;;;;;;;;;;;;;;;19.52;49.75;101950.19;2089276;28;2008;-71
2021/03/18 01:43:43;;;;;;;;;;;;;;;19.52;49.78;101947.34;2090965;28;1679;-70
2021/03/18 01:44:44;;;;;;;;;;;;;;;19.52;49.83;101941.69;2088191;28;1961;-70
2021/03/18 01:45:44;;;;;;;;;;;;;;;19.52;49.73;101944.53;2091013;28;1834;-71
2021/03/18 01:46:45;;;;;;;;;;;;;;;19.51;49.83;101945.66;2090196;28;1929;-71
2021/03/18 01:47:46;;;;;;;;;;;;;;;19.52;49.80;101938.00;2089208;28;2064;-70
2021/03/18 01:48:47;;;;;;;;;;;;;;;19.52;49.87;101947.34;2093000;28;1637;-71
2021/03/18 01:49:48;;;;;;;;;;;;;;;19.52;49.86;101940.84;2093376;28;1873;-70
2021/03/18 01:50:49;;;;;;;;;;;;;;;19.52;49.96;101944.53;2092862;28;1076;-71
2021/03/18 01:51:50;;;;;;;;;;;;;;;19.52;49.77;101938.00;2092369;28;1309;-71
2021/03/18 01:52:50;;;;;;;;;;;;;;;19.52;49.96;101938.84;2092686;28;1137;-71
2021/03/18 01:53:51;;;;;;;;;;;;;;;19.52;49.76;101936.00;2091173;28;1080;-71
2021/03/18 01:54:52;;;;;;;;;;;;;;;19.52;49.75;101935.16;2089805;28;1629;-71
2021/03/18 01:55:53;;;;;;;;;;;;;;;19.52;49.75;101936.00;2088429;28;1648;-70
2021/03/18 01:56:53;;;;;;;;;;;;;;;19.52;49.83;101936.00;2091385;28;1077;-70
2021/03/18 01:57:54;;;;;;;;;;;;;;;19.53;49.85;101934.84;2090982;28;1376;-70
2021/03/18 01:58:55;;;;;;;;;;;;;;;19.54;49.79;101932.84;2088825;28;2017;-70
2021/03/18 01:59:55;;;;;;;;;;;;;;;19.53;49.77;101932.00;2090181;28;2037;-70
2021/03/18 02:00:56;;;;;;;;;;;;;;;19.53;49.85;101932.00;2091566;28;1155;-70
2021/03/18 02:01:58;;;;;;;;;;;;;;;19.55;49.94;101934.53;2090966;28;1129;-70
2021/03/18 02:02:59;;;;;;;;;;;;;;;19.55;50.00;101938.22;2091639;28;1651;-70
2021/03/18 02:04:00;;;;;;;;;;;;;;;19.55;50.10;101937.38;2091081;28;2289;-70
2021/03/18 02:05:02;;;;;;;;;;;;;;;19.54;50.06;101939.34;2090827;28;1353;-70
2021/03/18 02:06:02;;;;;;;;;;;;;;;19.55;50.07;101935.38;2091045;28;1778;-70
2021/03/18 02:07:03;;;;;;;;;;;;;;;19.55;50.18;101940.22;2090564;28;1664;-70
2021/03/18 02:08:04;;;;;;;;;;;;;;;19.55;50.21;101941.03;2088126;28;1062;-69
2021/03/18 02:09:05;;;;;;;;;;;;;;;19.55;50.18;101935.38;2086057;28;1861;-70
2021/03/18 02:10:05;;;;;;;;;;;;;;;19.54;50.18;101936.50;2089706;28;2010;-70
2021/03/18 02:11:06;;;;;;;;;;;;;;;19.54;50.21;101938.50;2089646;28;1084;-70
2021/03/18 02:12:07;;;;;;;;;;;;;;;19.56;50.26;101944.72;2087180;28;1076;-70
2021/03/18 02:13:08;;;;;;;;;;;;;;;19.56;50.19;101944.72;2090450;28;1770;-70
2021/03/18 02:14:08;;;;;;;;;;;;;;;19.55;50.15;101941.03;2086052;28;1886;-70
2021/03/18 02:15:09;;;;;;;;;;;;;;;19.55;50.41;101938.22;2090080;28;2022;-70
2021/03/18 02:16:10;;;;;;;;;;;;;;;19.56;50.30;101936.19;2090610;28;1408;-70
2021/03/18 02:17:11;;;;;;;;;;;;;;;19.53;50.11;101937.66;2089614;28;1716;-70
2021/03/18 02:18:12;;;;;;;;;;;;;;;19.55;50.29;101937.38;2087343;28;2123;-70
2021/03/18 02:19:13;;;;;;;;;;;;;;;19.55;50.35;101938.22;2088973;28;1977;-70
2021/03/18 02:20:13;;;;;;;;;;;;;;;19.56;50.31;101942.72;2087197;28;1806;-70
2021/03/18 02:21:14;;;;;;;;;;;;;;;19.56;50.38;101941.88;2090991;28;1141;-70
2021/03/18 02:22:15;;;;;;;;;;;;;;;19.56;50.29;101939.03;2090650;28;1056;-70
2021/03/18 02:23:16;;;;;;;;;;;;;;;19.56;50.40;101942.72;2088123;28;1743;-70
2021/03/18 02:24:17;;;;;;;;;;;;;;;19.56;50.30;101944.72;2087664;28;1212;-70
2021/03/18 02:25:17;;;;;;;;;;;;;;;19.56;50.36;101936.19;2086465;28;1899;-70
2021/03/18 02:26:18;;;;;;;;;;;;;;;19.56;50.34;101945.56;2087468;28;1705;-70
2021/03/18 02:27:19;;;;;;;;;;;;;;;19.56;50.43;101942.72;2087418;28;1419;-70
2021/03/18 02:28:20;;;;;;;;;;;;;;;19.57;50.46;101937.88;2088176;28;1636;-70
2021/03/18 02:29:20;;;;;;;;;;;;;;;19.56;50.43;101944.72;2088738;28;2126;-70
2021/03/18 02:30:21;;;;;;;;;;;;;;;19.56;50.40;101945.56;2087553;28;1719;-70
2021/03/18 02:31:22;;;;;;;;;;;;;;;19.56;50.45;101942.72;2087726;28;2040;-70
2021/03/18 02:32:23;;;;;;;;;;;;;;;19.56;50.10;101937.03;2090032;28;2314;-70
2021/03/18 02:33:24;;;;;;;;;;;;;;;19.56;50.43;101937.03;2090595;28;1103;-70
2021/03/18 02:34:25;;;;;;;;;;;;;;;19.56;50.55;101942.72;2090502;28;1905;-71
2021/03/18 02:35:28;;;;;;;;;;;;;;;19.56;50.55;101944.72;2089908;28;1819;-70
2021/03/18 02:36:29;;;;;;;;;;;;;;;19.56;50.49;101939.88;2090418;28;2275;-71
2021/03/18 02:37:31;;;;;;;;;;;;;;;19.56;50.41;101937.03;2089418;28;1932;-70
2021/03/18 02:38:32;;;;;;;;;;;;;;;19.57;50.50;101937.88;2089310;28;1934;-70
2021/03/18 02:39:33;;;;;;;;;;;;;;;19.56;50.58;101933.38;2091054;28;2087;-70
2021/03/18 02:40:34;;;;;;;;;;;;;;;19.56;50.57;101931.34;2087538;28;1922;-70
2021/03/18 02:41:35;;;;;;;;;;;;;;;19.56;50.53;101933.38;2090541;28;1076;-70
2021/03/18 02:42:35;;;;;;;;;;;;;;;19.56;50.61;101934.19;2090732;28;1151;-70
2021/03/18 02:43:36;;;;;;;;;;;;;;;19.56;50.57;101939.03;2089382;28;1743;-70
2021/03/18 02:44:39;;;;;;;;;;;;;;;19.56;50.43;101933.38;2089445;28;1691;-70
2021/03/18 02:45:40;;;;;;;;;;;;;;;19.55;50.48;101926.84;2089923;28;2065;-70
2021/03/18 02:46:40;;;;;;;;;;;;;;;19.56;50.57;101933.38;2089278;28;1769;-70
2021/03/18 02:47:41;;;;;;;;;;;;;;;19.56;50.44;101931.34;2089722;28;1687;-70
2021/03/18 02:48:43;;;;;;;;;;;;;;;19.56;50.42;101928.53;2091498;28;1702;-70
2021/03/18 02:49:44;;;;;;;;;;;;;;;19.56;50.31;101936.19;2095745;28;1147;-70
2021/03/18 02:50:44;;;;;;;;;;;;;;;19.56;50.38;101928.53;2088657;28;1905;-70
2021/03/18 02:51:45;;;;;;;;;;;;;;;19.56;50.43;101925.69;2090237;28;1707;-70
2021/03/18 02:52:46;;;;;;;;;;;;;;;19.56;50.22;101924.84;2090552;28;1216;-70
2021/03/18 02:53:47;;;;;;;;;;;;;;;19.56;50.36;101927.69;2090508;28;1024;-70
2021/03/18 02:54:47;;;;;;;;;;;;;;;19.55;50.31;101929.69;2090942;28;1104;-70
2021/03/18 02:55:48;;;;;;;;;;;;;;;19.55;50.34;101928.84;2090127;28;1753;-70
2021/03/18 02:56:49;;;;;;;;;;;;;;;19.55;50.35;101929.69;2090251;28;1655;-70
2021/03/18 02:57:49;;;;;;;;;;;;;;;19.55;50.38;101932.53;2084349;28;1667;-70
2021/03/18 02:58:50;;;;;;;;;;;;;;;19.55;50.27;101926.84;2090472;28;2169;-70
2021/03/18 02:59:51;;;;;;;;;;;;;;;19.56;50.39;101922.00;2087950;28;2305;-70
2021/03/18 03:00:52;;;;;;;;;;;;;;;19.56;50.30;101930.53;2094710;28;1790;-70
2021/03/18 03:02:12;;;;;;;;;;;;;;;19.55;50.26;101929.69;2086282;28;2142;-70
2021/03/18 03:03:13;;;;;;;;;;;;;;;19.55;50.31;101931.69;2085928;28;1839;-70
2021/03/18 03:04:14;;;;;;;;;;;;;;;19.55;50.42;101931.69;2090624;28;1207;-71
2021/03/18 03:05:15;;;;;;;;;;;;;;;19.56;50.24;101922.00;2090081;28;1714;-70
2021/03/18 03:06:16;;;;;;;;;;;;;;;19.56;50.31;101927.69;2089836;28;1625;-70
2021/03/18 03:07:16;;;;;;;;;;;;;;;19.55;50.38;101921.19;2089520;28;1698;-70
2021/03/18 03:08:17;;;;;;;;;;;;;;;19.55;50.37;101929.69;2090030;28;1611;-70
2021/03/18 03:09:18;;;;;;;;;;;;;;;19.55;50.35;101929.69;2090518;28;2096;-70
2021/03/18 03:10:19;;;;;;;;;;;;;;;19.55;50.36;101929.69;2087635;28;1918;-70
2021/03/18 03:11:19;;;;;;;;;;;;;;;19.55;50.26;101935.38;2086130;28;1171;-70
2021/03/18 03:12:20;;;;;;;;;;;;;;;19.56;50.49;101930.53;2090641;28;1288;-71
2021/03/18 03:13:21;;;;;;;;;;;;;;;19.56;50.35;101930.53;2090083;28;1758;-70
2021/03/18 03:14:22;;;;;;;;;;;;;;;19.55;50.23;101924.00;2089707;28;1694;-70
2021/03/18 03:15:22;;;;;;;;;;;;;;;19.56;50.11;101922.84;2090541;28;1083;-70
2021/03/18 03:16:23;;;;;;;;;;;;;;;19.55;50.25;101924.00;2092754;28;1148;-70
2021/03/18 03:17:24;;;;;;;;;;;;;;;19.55;50.35;101929.69;2090956;28;1707;-70
2021/03/18 03:18:25;;;;;;;;;;;;;;;19.55;50.27;101926.84;2089744;28;1778;-70
2021/03/18 03:19:26;;;;;;;;;;;;;;;19.55;50.22;101926.84;2089862;28;1987;-72
2021/03/18 03:20:27;;;;;;;;;;;;;;;19.55;50.27;101929.69;2089365;28;1961;-71
2021/03/18 03:21:27;;;;;;;;;;;;;;;19.56;50.23;101924.84;2090477;28;1142;-71
2021/03/18 03:22:28;;;;;;;;;;;;;;;19.56;50.33;101924.84;2090927;28;1763;-71
2021/03/18 03:23:29;;;;;;;;;;;;;;;19.56;50.16;101925.69;2090478;28;1103;-71
2021/03/18 03:24:30;;;;;;;;;;;;;;;19.55;50.16;101917.50;2094044;28;1126;-71
2021/03/18 03:25:30;;;;;;;;;;;;;;;19.56;50.33;101919.16;2094110;28;1029;-71
2021/03/18 03:26:31;;;;;;;;;;;;;;;19.55;50.28;101921.19;2090569;28;1170;-71
2021/03/18 03:27:32;;;;;;;;;;;;;;;19.56;50.26;101922.00;2090535;28;1814;-71
2021/03/18 03:28:33;;;;;;;;;;;;;;;19.56;50.20;101920.00;2090473;28;1789;-71
2021/03/18 03:29:34;;;;;;;;;;;;;;;19.56;50.23;101920.00;2088995;28;1723;-71
2021/03/18 03:30:35;;;;;;;;;;;;;;;19.55;50.24;101921.19;2089810;28;2041;-71
2021/03/18 03:31:35;;;;;;;;;;;;;;;19.55;50.15;101918.34;2089224;28;1771;-71
2021/03/18 03:32:37;;;;;;;;;;;;;;;19.57;50.24;101923.69;2090499;28;1389;-71
2021/03/18 03:33:38;;;;;;;;;;;;;;;19.57;50.26;101920.84;2090275;28;1806;-71
2021/03/18 03:34:39;;;;;;;;;;;;;;;19.57;50.24;101926.53;2089449;28;1886;-71
2021/03/18 03:35:39;;;;;;;;;;;;;;;19.57;50.18;101918.00;2091923;28;1051;-70
2021/03/18 03:36:40;;;;;;;;;;;;;;;19.56;50.19;101919.16;2086981;28;2264;-71
2021/03/18 03:37:41;;;;;;;;;;;;;;;19.57;50.23;101916.03;2090069;28;1128;-71
2021/03/18 03:38:42;;;;;;;;;;;;;;;19.57;50.22;101921.72;2090035;28;2003;-71
2021/03/18 03:39:42;;;;;;;;;;;;;;;19.57;50.32;101920.84;2095156;28;1400;-71
2021/03/18 03:40:43;;;;;;;;;;;;;;;19.57;50.22;101921.72;2088709;28;1910;-70
2021/03/18 03:41:44;;;;;;;;;;;;;;;19.58;50.31;101919.72;2090154;28;1223;-71
2021/03/18 03:42:45;;;;;;;;;;;;;;;19.57;50.31;101921.72;2092152;28;2112;-71
2021/03/18 03:43:45;;;;;;;;;;;;;;;19.57;50.20;101916.03;2092949;28;2032;-71
2021/03/18 03:44:46;;;;;;;;;;;;;;;19.57;50.37;101918.88;2090398;28;1148;-70
2021/03/18 03:45:47;;;;;;;;;;;;;;;19.58;50.33;101911.19;2097237;28;1776;-71
2021/03/18 03:46:48;;;;;;;;;;;;;;;19.58;50.34;101916.88;2089237;28;1728;-71
2021/03/18 03:47:48;;;;;;;;;;;;;;;19.57;50.29;101918.88;2090436;28;1754;-71
2021/03/18 03:48:49;;;;;;;;;;;;;;;19.57;50.38;101910.34;2092008;28;1766;-71
2021/03/18 03:49:50;;;;;;;;;;;;;;;19.58;50.36;101914.03;2090096;28;1864;-72
2021/03/18 03:50:51;;;;;;;;;;;;;;;19.58;50.22;101911.19;2088272;28;1950;-71
2021/03/18 03:51:52;;;;;;;;;;;;;;;19.58;50.53;101905.50;2083434;28;1985;-70
2021/03/18 03:52:52;;;;;;;;;;;;;;;19.58;50.39;101911.19;2090327;28;1199;-71
2021/03/18 03:53:53;;;;;;;;;;;;;;;19.58;50.39;101911.19;2089250;28;1715;-71
2021/03/18 03:54:54;;;;;;;;;;;;;;;19.58;50.35;101911.19;2089927;28;972;-71
2021/03/18 03:55:55;;;;;;;;;;;;;;;19.58;50.33;101911.19;2089591;28;1851;-71
2021/03/18 03:56:56;;;;;;;;;;;;;;;19.60;50.31;101911.72;2090344;28;1140;-71
2021/03/18 03:57:56;;;;;;;;;;;;;;;19.58;50.41;101909.19;2090195;28;1112;-71
2021/03/18 03:58:57;;;;;;;;;;;;;;;19.58;50.25;101906.34;2089312;28;1942;-71
2021/03/18 03:59:58;;;;;;;;;;;;;;;19.59;50.36;101907.19;2089802;28;1711;-71
2021/03/18 04:00:58;;;;;;;;;;;;;;;19.58;50.29;101911.19;2088901;28;1679;-70
2021/03/18 04:01:59;;;;;;;;;;;;;;;19.58;50.30;101900.66;2084570;28;1926;-70
2021/03/18 04:03:01;;;;;;;;;;;;;;;19.58;50.23;101906.34;2082279;28;869;-70
2021/03/18 04:04:02;;;;;;;;;;;;;;;19.57;50.24;101907.50;2079167;28;1719;-70
2021/03/18 04:05:03;;;;;;;;;;;;;;;19.59;50.34;101908.00;2081516;28;1127;-70
2021/03/18 04:06:04;;;;;;;;;;;;;;;19.58;50.37;101914.84;2085886;28;1182;-69
2021/03/18 04:07:05;;;;;;;;;;;;;;;19.60;50.25;101900.38;2089273;28;1817;-70
2021/03/18 04:08:06;;;;;;;;;;;;;;;19.57;50.23;101910.34;2090186;28;1120;-71
2021/03/18 04:09:06;;;;;;;;;;;;;;;19.61;50.33;101909.72;2089890;28;1130;-70
2021/03/18 04:10:07;;;;;;;;;;;;;;;19.58;50.28;101909.19;2091468;28;1679;-71
2021/03/18 04:11:08;;;;;;;;;;;;;;;19.58;50.25;101903.50;2087976;28;1905;-70
2021/03/18 04:12:09;;;;;;;;;;;;;;;19.58;50.28;101906.34;2087722;28;1823;-70
2021/03/18 04:13:09;;;;;;;;;;;;;;;19.58;50.28;101902.66;2088448;28;1425;-70
2021/03/18 04:14:10;;;;;;;;;;;;;;;19.61;50.39;101909.72;2086355;28;2187;-70
2021/03/18 04:15:11;;;;;;;;;;;;;;;19.58;50.26;101902.66;2086700;28;1941;-70
2021/03/18 04:16:12;;;;;;;;;;;;;;;19.58;50.36;101903.50;2089998;28;1071;-69
2021/03/18 04:17:12;;;;;;;;;;;;;;;19.57;50.20;101904.69;2091995;28;1770;-70
2021/03/18 04:18:14;;;;;;;;;;;;;;;19.58;50.37;101899.84;2090094;28;1885;-70
2021/03/18 04:19:15;;;;;;;;;;;;;;;19.57;50.29;101899.00;2090034;28;1910;-70
2021/03/18 04:20:16;;;;;;;;;;;;;;;19.57;50.26;101899.00;2094433;28;1096;-70
2021/03/18 04:21:17;;;;;;;;;;;;;;;19.57;50.44;101901.84;2087201;28;1831;-70
2021/03/18 04:22:17;;;;;;;;;;;;;;;19.58;50.29;101902.66;2086147;28;2342;-70
2021/03/18 04:23:18;;;;;;;;;;;;;;;19.57;50.25;101893.31;2090077;28;1157;-70
2021/03/18 04:24:19;;;;;;;;;;;;;;;19.57;50.35;101893.31;2095706;28;1548;-70
2021/03/18 04:25:19;;;;;;;;;;;;;;;19.57;50.20;101896.16;2086831;28;1104;-68
2021/03/18 04:26:21;;;;;;;;;;;;;;;19.57;50.33;101896.16;2086239;28;1740;-70
2021/03/18 04:27:22;;;;;;;;;;;;;;;19.57;50.39;101893.31;2087725;28;1107;-70
2021/03/18 04:28:22;;;;;;;;;;;;;;;19.58;50.41;101895.00;2086504;28;1782;-71
2021/03/18 04:29:23;;;;;;;;;;;;;;;19.57;50.44;101898.13;2097480;28;1729;-71
2021/03/18 04:30:24;;;;;;;;;;;;;;;19.57;50.29;101900.97;2093699;28;1798;-71
2021/03/18 04:31:25;;;;;;;;;;;;;;;19.57;50.31;101898.13;2090941;28;1787;-71
2021/03/18 04:32:26;;;;;;;;;;;;;;;19.57;50.33;101899.00;2088993;28;1920;-71
2021/03/18 04:33:27;;;;;;;;;;;;;;;19.58;50.29;101899.84;2089774;28;1758;-71
2021/03/18 04:34:28;;;;;;;;;;;;;;;19.57;50.40;101890.47;2089772;28;1868;-71
2021/03/18 04:35:28;;;;;;;;;;;;;;;19.57;50.26;101899.00;2089455;28;1848;-71
2021/03/18 04:36:29;;;;;;;;;;;;;;;19.58;50.28;101895.00;2089824;28;1711;-71
2021/03/18 04:37:30;;;;;;;;;;;;;;;19.58;50.32;101894.16;2088412;28;1806;-71
2021/03/18 04:38:32;;;;;;;;;;;;;;;19.58;50.37;101895.00;2089969;28;1107;-71
2021/03/18 04:39:32;;;;;;;;;;;;;;;19.58;50.19;101895.00;2089589;28;1918;-71
2021/03/18 04:40:33;;;;;;;;;;;;;;;19.58;50.19;101895.00;2090049;28;1150;-71
2021/03/18 04:41:34;;;;;;;;;;;;;;;19.58;50.25;101892.16;2083038;28;1460;-71
2021/03/18 04:42:35;;;;;;;;;;;;;;;19.59;50.31;101890.16;2087764;28;1846;-71
2021/03/18 04:43:35;;;;;;;;;;;;;;;19.60;50.27;101889.00;2089483;28;1655;-71
2021/03/18 04:44:36;;;;;;;;;;;;;;;19.61;50.33;101892.69;2091511;28;1902;-71
2021/03/18 04:45:37;;;;;;;;;;;;;;;19.61;50.35;101895.53;2091293;28;1783;-71
2021/03/18 04:46:38;;;;;;;;;;;;;;;19.58;50.40;101886.47;2091027;28;1693;-71
2021/03/18 04:47:39;;;;;;;;;;;;;;;19.61;50.30;101898.34;2091846;28;1149;-71
2021/03/18 04:48:41;;;;;;;;;;;;;;;19.61;50.30;101892.69;2083715;28;1829;-72
2021/03/18 04:49:41;;;;;;;;;;;;;;;19.58;50.18;101886.47;2091428;28;1627;-72
2021/03/18 04:50:42;;;;;;;;;;;;;;;19.61;50.27;101893.53;2091522;28;2167;-72
2021/03/18 04:51:43;;;;;;;;;;;;;;;19.61;50.28;101895.53;2082631;28;2356;-72
2021/03/18 04:52:44;;;;;;;;;;;;;;;19.62;50.21;101885.84;2091665;28;1084;-72
2021/03/18 04:53:45;;;;;;;;;;;;;;;19.62;50.21;101888.69;2092765;28;1068;-72
2021/03/18 04:54:45;;;;;;;;;;;;;;;19.62;50.33;101886.66;2091955;28;1840;-72
2021/03/18 04:55:46;;;;;;;;;;;;;;;19.62;50.34;101891.50;2090878;28;1656;-71
2021/03/18 04:56:47;;;;;;;;;;;;;;;19.61;50.38;101889.84;2091455;28;1691;-71
2021/03/18 04:57:48;;;;;;;;;;;;;;;19.61;50.35;101895.53;2091641;28;1644;-72
2021/03/18 04:58:48;;;;;;;;;;;;;;;19.61;50.23;101892.69;2088248;28;2346;-71
2021/03/18 04:59:49;;;;;;;;;;;;;;;19.62;50.15;101888.69;2084587;28;2255;-71
2021/03/18 05:00:50;;;;;;;;;;;;;;;19.61;50.40;101881.31;2089451;28;2111;-70
2021/03/18 05:01:51;;;;;;;;;;;;;;;19.60;50.29;101891.84;2088929;28;1080;-70
2021/03/18 05:02:52;;;;;;;;;;;;;;;19.61;50.25;101892.69;2090854;28;1426;-70
2021/03/18 05:03:53;;;;;;;;;;;;;;;19.60;50.36;101883.34;2091435;28;1723;-71
2021/03/18 05:04:54;;;;;;;;;;;;;;;19.61;50.28;101889.84;2094189;28;1076;-71
2021/03/18 05:05:54;;;;;;;;;;;;;;;19.61;50.15;101878.50;2093981;28;1127;-70
2021/03/18 05:06:55;;;;;;;;;;;;;;;19.61;50.24;101881.31;2090893;28;1143;-70
2021/03/18 05:07:56;;;;;;;;;;;;;;;19.61;50.27;101875.66;2086357;28;1044;-71
2021/03/18 05:08:56;;;;;;;;;;;;;;;19.58;50.34;101880.81;2090939;28;1667;-71
2021/03/18 05:09:57;;;;;;;;;;;;;;;19.59;50.25;101873.13;2091428;28;1404;-71
2021/03/18 05:10:58;;;;;;;;;;;;;;;19.61;50.16;101872.81;2089422;28;1926;-70
2021/03/18 05:11:59;;;;;;;;;;;;;;;19.59;50.32;101868.28;2089414;28;1064;-70
2021/03/18 05:12:59;;;;;;;;;;;;;;;19.61;50.29;101869.97;2091738;28;1064;-70
2021/03/18 05:14:00;;;;;;;;;;;;;;;19.58;50.31;101875.13;2091033;28;1854;-70
2021/03/18 05:15:01;;;;;;;;;;;;;;;19.58;50.18;101869.44;2091758;28;1282;-70
2021/03/18 05:16:03;;;;;;;;;;;;;;;19.58;50.30;101866.59;2092738;28;1240;-69
2021/03/18 05:17:04;;;;;;;;;;;;;;;19.58;50.29;101872.28;2092868;28;1091;-69